createdAt,value
2024-04-06T13:03:06.213Z,56.40
2024-04-06T13:07:30.866Z,59.60
2024-04-06T13:10:01.522Z,57.90
2024-04-06T13:12:34.524Z,57.90
2024-04-06T13:15:06.319Z,56.00
2024-04-06T13:17:36.637Z,53.30
2024-04-06T13:20:11.094Z,52.10
2024-04-06T13:22:44.259Z,53.00
2024-04-06T13:25:13.302Z,54.60
2024-04-06T13:27:44.189Z,56.60
2024-04-06T13:30:12.647Z,55.40
2024-04-06T13:32:43.473Z,53.40
2024-04-06T13:35:10.847Z,54.60
2024-04-06T13:37:43.926Z,56.00
2024-04-06T13:40:12.316Z,51.70
2024-04-06T13:42:43.188Z,53.70
2024-04-06T13:45:13.746Z,52.80
2024-04-06T13:47:45.152Z,51.20
2024-04-06T13:50:13.307Z,53.40
2024-04-06T13:52:46.077Z,53.00
2024-04-06T13:55:13.527Z,56.90
2024-04-06T13:57:49.504Z,53.50
2024-04-06T14:00:17.503Z,50.80
2024-04-06T14:02:47.506Z,51.90
2024-04-06T14:05:15.541Z,51.40
2024-04-06T14:07:49.390Z,51.00
2024-04-06T14:10:17.064Z,51.70
2024-04-06T14:12:47.222Z,54.40
2024-04-06T14:15:14.704Z,54.00
2024-04-06T14:17:44.886Z,55.20
2024-04-06T14:20:12.344Z,54.90
2024-04-06T14:22:43.016Z,54.30
2024-04-06T14:25:15.996Z,53.50
2024-04-06T14:27:47.452Z,54.00
2024-04-06T14:30:26.310Z,53.10
2024-04-06T14:32:56.443Z,53.40
2024-04-06T14:35:24.516Z,53.10
2024-04-06T14:37:55.004Z,53.80
2024-04-06T14:40:25.062Z,54.10
2024-04-06T14:42:55.152Z,53.60
2024-04-06T14:45:22.618Z,54.70
2024-04-06T14:47:52.686Z,51.40
2024-04-06T14:50:20.199Z,53.70
2024-04-06T14:52:50.441Z,53.20
2024-04-06T14:55:19.076Z,52.10
2024-04-06T14:57:52.058Z,52.40
2024-04-06T15:00:19.630Z,51.70
2024-04-06T15:02:49.727Z,52.10
2024-04-06T15:05:17.288Z,54.50
2024-04-06T15:07:48.360Z,50.70
2024-04-06T15:10:15.792Z,51.40
2024-04-06T15:12:45.842Z,51.90
2024-04-06T15:15:16.160Z,53.20
2024-04-06T15:17:46.592Z,50.00
2024-04-06T15:20:14.344Z,53.80
2024-04-06T15:22:45.263Z,51.80
2024-04-06T15:25:17.228Z,52.80
2024-04-06T15:27:49.843Z,54.20
2024-04-06T15:30:21.288Z,52.70
2024-04-06T15:32:52.913Z,52.60
2024-04-06T15:35:20.961Z,53.10
2024-04-06T15:37:54.334Z,55.70
2024-04-06T15:40:22.416Z,54.00
2024-04-06T15:42:52.753Z,52.80
2024-04-06T15:45:25.497Z,54.50
2024-04-06T15:47:52.903Z,55.90
2024-04-06T15:50:22.918Z,55.70
2024-04-06T15:52:50.414Z,56.30
2024-04-06T15:55:20.730Z,56.20
2024-04-06T15:57:48.540Z,57.50
2024-04-06T16:00:19.099Z,57.10
2024-04-06T16:02:49.605Z,57.30
2024-04-06T16:05:19.796Z,58.70
2024-04-06T16:07:48.671Z,60.10
2024-04-06T16:10:18.931Z,60.90
2024-04-06T16:12:46.695Z,60.10
2024-04-06T16:15:17.011Z,59.70
2024-04-06T16:17:44.484Z,58.60
2024-04-06T16:20:17.438Z,59.50
2024-04-06T16:22:44.845Z,58.60
2024-04-06T16:25:16.851Z,59.40
2024-04-06T16:27:44.416Z,61.20
2024-04-06T16:30:17.558Z,61.00
2024-04-06T16:32:45.298Z,62.30
2024-04-06T16:35:18.328Z,62.10
2024-04-06T16:37:47.589Z,62.70
2024-04-06T16:40:17.952Z,62.20
2024-04-06T16:42:45.252Z,63.00
2024-04-06T16:45:15.422Z,63.30
2024-04-06T16:47:42.900Z,63.60
2024-04-06T16:50:13.386Z,65.10
2024-04-06T16:52:43.449Z,64.70
2024-04-06T16:55:14.707Z,65.50
2024-04-06T16:57:43.645Z,65.60
2024-04-06T17:00:15.256Z,64.50
2024-04-06T17:02:43.357Z,63.50
2024-04-06T17:05:14.782Z,63.40
2024-04-06T17:07:45.857Z,63.00
2024-04-06T17:10:16.551Z,63.30
2024-04-06T17:12:45.695Z,63.10
2024-04-06T17:15:15.782Z,63.70
2024-04-06T17:17:43.648Z,64.30
2024-04-06T17:20:14.515Z,64.90
2024-04-06T17:22:45.207Z,65.00
2024-04-06T17:25:15.490Z,65.20
2024-04-06T17:27:43.425Z,66.70
2024-04-06T17:30:15.326Z,66.90
2024-04-06T17:32:43.227Z,67.40
2024-04-06T17:35:15.032Z,67.90
2024-04-06T17:37:45.513Z,68.40
2024-04-06T17:40:15.936Z,68.80
2024-04-06T17:42:44.083Z,68.60
2024-04-06T17:45:14.541Z,68.60
2024-04-06T17:47:42.598Z,68.90
2024-04-06T17:50:13.143Z,68.20
2024-04-06T17:52:41.189Z,67.80
2024-04-06T17:55:16.023Z,67.80
2024-04-06T17:57:44.069Z,68.70
2024-04-06T18:00:16.374Z,71.10
2024-04-06T18:02:44.045Z,68.80
2024-04-06T18:05:14.358Z,69.40
2024-04-06T18:07:41.863Z,70.00
2024-04-06T18:10:14.500Z,69.70
2024-04-06T18:12:44.749Z,72.10
2024-04-06T18:15:12.486Z,69.10
2024-04-06T18:17:42.777Z,68.90
2024-04-06T18:20:10.401Z,69.00
2024-04-06T18:22:40.591Z,69.40
2024-04-06T18:25:10.405Z,70.70
2024-04-06T18:27:43.651Z,71.80
2024-04-06T18:30:11.657Z,70.30
2024-04-06T18:32:41.880Z,70.50
2024-04-06T18:35:10.047Z,70.80
2024-04-06T18:37:40.174Z,71.60
2024-04-06T18:40:07.907Z,71.00
2024-04-06T18:42:38.779Z,71.50
2024-04-06T18:45:11.554Z,71.50
2024-04-06T18:47:42.384Z,71.10
2024-04-06T18:50:09.815Z,70.30
2024-04-06T18:52:39.957Z,70.80
2024-04-06T18:55:07.748Z,70.80
2024-04-06T18:57:38.031Z,71.50
2024-04-06T19:00:09.707Z,71.60
2024-04-06T19:02:43.351Z,71.60
2024-04-06T19:05:11.311Z,71.30
2024-04-06T19:07:42.029Z,71.70
2024-04-06T19:10:09.484Z,72.60
2024-04-06T19:12:39.498Z,72.60
2024-04-06T19:15:11.883Z,72.20
2024-04-06T19:17:42.128Z,73.80
2024-04-06T19:20:10.670Z,73.50
2024-04-06T19:22:41.176Z,74.30
2024-04-06T19:25:09.103Z,75.10
2024-04-06T19:27:40.046Z,76.10
2024-04-06T19:30:11.228Z,76.60
2024-04-06T19:32:43.058Z,76.40
2024-04-06T19:35:10.698Z,76.60
2024-04-06T19:37:40.981Z,76.70
2024-04-06T19:40:09.463Z,76.70
2024-04-06T19:42:40.450Z,76.80
2024-04-06T19:45:13.533Z,75.60
2024-04-06T19:47:44.998Z,75.00
2024-04-06T19:50:13.127Z,74.80
2024-04-06T19:52:44.617Z,75.40
2024-04-06T19:55:16.106Z,75.50
2024-04-06T19:57:46.238Z,74.70
2024-04-06T20:00:17.749Z,74.80
2024-04-06T20:02:48.338Z,76.60
2024-04-06T20:05:16.201Z,76.20
2024-04-06T20:07:46.812Z,76.10
2024-04-06T20:10:14.528Z,75.80
2024-04-06T20:12:45.100Z,77.50
2024-04-06T20:15:12.630Z,77.20
2024-04-06T20:17:45.890Z,78.40
2024-04-06T20:20:13.586Z,78.10
2024-04-06T20:22:59.790Z,78.80
2024-04-06T20:25:45.946Z,78.80
2024-04-06T20:28:16.173Z,82.10
2024-04-06T20:30:46.170Z,84.20
2024-04-06T20:33:16.355Z,83.40
2024-04-06T20:35:48.026Z,83.70
2024-04-06T20:38:18.670Z,82.90
2024-04-06T20:40:46.301Z,84.50
2024-04-06T20:43:18.010Z,85.60
2024-04-06T20:45:46.182Z,86.00
2024-04-06T20:48:19.751Z,87.20
2024-04-06T20:50:47.762Z,87.70
2024-04-06T20:53:18.109Z,88.50
2024-04-06T20:55:46.163Z,88.40
2024-04-06T20:58:16.800Z,88.70
2024-04-06T21:00:45.036Z,88.00
2024-04-06T21:03:15.289Z,88.20
2024-04-06T21:05:45.733Z,88.40
2024-04-06T21:08:16.414Z,89.60
2024-04-06T21:10:43.902Z,89.70
2024-04-06T21:13:14.397Z,90.10
2024-04-06T21:15:42.528Z,90.50
2024-04-06T21:18:12.630Z,90.60
2024-04-06T21:20:40.248Z,90.70
2024-04-06T21:23:13.003Z,90.70
2024-04-06T21:25:40.512Z,90.70
2024-04-06T21:28:10.664Z,90.60
2024-04-06T21:30:38.282Z,90.80
2024-04-06T21:33:08.535Z,90.80
2024-04-06T21:35:35.911Z,90.90
2024-04-06T21:38:06.074Z,91.00
2024-04-06T21:40:36.078Z,91.30
2024-04-06T21:43:06.165Z,91.40
2024-04-06T21:45:33.526Z,91.80
2024-04-06T21:48:03.949Z,92.00
2024-04-06T21:50:32.529Z,92.50
2024-04-06T21:53:02.435Z,93.00
2024-04-06T21:55:29.903Z,93.40
2024-04-06T21:58:02.534Z,93.20
2024-04-06T22:00:37.324Z,93.10
2024-04-06T22:03:09.578Z,93.30
2024-04-06T22:05:36.925Z,93.50
2024-04-06T22:08:07.919Z,93.40
2024-04-06T22:10:35.737Z,93.70
2024-04-06T22:13:08.929Z,93.90
2024-04-06T22:15:36.915Z,94.00
2024-04-06T22:18:07.762Z,94.20
2024-04-06T22:20:35.988Z,94.30
2024-04-06T22:23:06.523Z,94.30
2024-04-06T22:25:33.889Z,94.20
2024-04-06T22:28:03.825Z,94.40
2024-04-06T22:30:34.179Z,94.10
2024-04-06T22:33:04.436Z,94.30
2024-04-06T22:35:31.903Z,94.40
2024-04-06T22:38:01.929Z,94.50
2024-04-06T22:40:29.569Z,94.50
2024-04-06T22:42:59.668Z,95.30
2024-04-06T22:45:27.049Z,95.70
2024-04-06T22:47:59.830Z,95.80
2024-04-06T22:50:27.428Z,96.00
2024-04-06T22:52:57.438Z,96.30
2024-04-06T22:55:25.448Z,96.50
2024-04-06T22:57:55.353Z,96.50
2024-04-06T23:00:22.949Z,96.50
2024-04-06T23:02:52.877Z,95.90
2024-04-06T23:05:23.114Z,95.50
2024-04-06T23:07:53.188Z,95.20
2024-04-06T23:10:20.666Z,94.60
2024-04-06T23:12:52.926Z,94.60
2024-04-06T23:15:20.480Z,94.70
2024-04-06T23:17:50.585Z,94.50
2024-04-06T23:20:18.207Z,94.30
2024-04-06T23:22:51.212Z,94.20
2024-04-06T23:25:18.754Z,93.80
2024-04-06T23:27:48.751Z,93.80
2024-04-06T23:30:16.285Z,93.90
2024-04-06T23:32:46.176Z,94.30
2024-04-06T23:35:13.543Z,95.30
2024-04-06T23:37:44.055Z,95.70
2024-04-06T23:40:14.629Z,96.00
2024-04-06T23:42:44.721Z,96.20
2024-04-06T23:45:12.207Z,95.90
2024-04-06T23:47:42.323Z,95.90
2024-04-06T23:50:10.043Z,95.60
2024-04-06T23:52:40.167Z,95.60
2024-04-06T23:55:08.089Z,95.60
2024-04-06T23:57:40.922Z,95.70
